createdAt,value
2017-12-31T00:00:53.927Z,78.08
2017-12-31T00:01:53.895Z,82.84
2017-12-31T00:02:53.849Z,83.70
2017-12-31T00:03:53.817Z,82.56
2017-12-31T00:04:53.775Z,78.99
2017-12-31T00:05:53.763Z,84.08
2017-12-31T00:06:53.699Z,80.27
2017-12-31T00:07:53.654Z,80.94
2017-12-31T00:08:53.618Z,79.94
2017-12-31T00:09:53.574Z,75.89
2017-12-31T00:10:53.539Z,79.28
2017-12-31T00:11:53.513Z,78.71
2017-12-31T00:12:53.460Z,76.04
2017-12-31T00:13:53.452Z,73.47
2017-12-31T00:14:53.390Z,76.23
2017-12-31T00:15:53.340Z,79.94
2017-12-31T00:16:53.314Z,82.08
2017-12-31T00:17:53.264Z,78.99
2017-12-31T00:18:53.221Z,80.80
2017-12-31T00:19:53.186Z,82.18
2017-12-31T00:20:53.150Z,77.19
2017-12-31T00:21:53.115Z,81.09
2017-12-31T00:22:53.070Z,81.18
2017-12-31T00:23:53.036Z,83.80
2017-12-31T00:24:52.990Z,84.94
2017-12-31T00:25:52.957Z,86.65
2017-12-31T00:26:52.926Z,77.89
2017-12-31T00:27:52.868Z,81.18
2017-12-31T00:28:52.837Z,84.46
2017-12-31T00:29:52.792Z,81.76
2017-12-31T00:30:52.750Z,84.04
2017-12-31T00:31:52.715Z,85.51
2017-12-31T00:32:52.677Z,84.33
2017-12-31T00:33:52.642Z,84.84
2017-12-31T00:34:52.618Z,81.85
2017-12-31T00:35:52.561Z,77.37
2017-12-31T00:36:52.519Z,84.13
2017-12-31T00:37:52.486Z,83.61
2017-12-31T00:38:52.437Z,84.08
2017-12-31T00:39:52.400Z,84.36
2017-12-31T00:40:52.367Z,84.13
2017-12-31T00:41:52.330Z,83.94
2017-12-31T00:42:52.284Z,83.09
2017-12-31T00:43:52.242Z,85.18
2017-12-31T00:44:52.206Z,82.70
2017-12-31T00:45:52.166Z,83.47
2017-12-31T00:46:52.124Z,84.61
2017-12-31T00:47:52.083Z,84.70
2017-12-31T00:48:52.045Z,84.52
2017-12-31T00:49:52.015Z,86.32
2017-12-31T00:50:51.977Z,84.99
2017-12-31T00:51:51.947Z,84.99
2017-12-31T00:52:51.887Z,84.99
2017-12-31T00:53:51.859Z,85.85
2017-12-31T00:54:51.841Z,84.23
2017-12-31T00:55:51.769Z,84.33
2017-12-31T00:56:51.730Z,81.76
2017-12-31T00:57:51.694Z,85.18
2017-12-31T00:58:51.662Z,84.04
2017-12-31T00:59:51.614Z,83.85
2017-12-31T01:00:51.589Z,83.94
2017-12-31T01:01:51.546Z,83.28
2017-12-31T01:02:51.497Z,84.89
2017-12-31T01:03:51.454Z,85.08
2017-12-31T01:04:51.418Z,83.28
2017-12-31T01:05:51.391Z,84.04
2017-12-31T01:06:51.338Z,86.04
2017-12-31T01:07:51.300Z,85.37
2017-12-31T01:08:51.276Z,85.08
2017-12-31T01:09:51.221Z,84.80
2017-12-31T01:10:51.185Z,83.94
2017-12-31T01:11:51.141Z,82.99
2017-12-31T01:12:51.103Z,81.56
2017-12-31T01:13:51.068Z,80.13
2017-12-31T01:14:51.025Z,81.09
2017-12-31T01:15:50.987Z,80.90
2017-12-31T01:16:50.947Z,78.90
2017-12-31T01:17:50.907Z,77.95
2017-12-31T01:18:50.867Z,79.47
2017-12-31T01:19:50.838Z,77.56
2017-12-31T01:20:50.791Z,77.66
2017-12-31T01:21:50.758Z,77.76
2017-12-31T01:22:50.716Z,77.76
2017-12-31T01:23:50.672Z,79.75
2017-12-31T01:24:50.633Z,74.24
2017-12-31T01:25:50.595Z,78.52
2017-12-31T01:26:50.557Z,80.42
2017-12-31T01:27:50.522Z,80.42
2017-12-31T01:28:50.480Z,78.90
2017-12-31T01:29:50.438Z,79.09
2017-12-31T01:30:50.426Z,78.04
2017-12-31T01:31:50.362Z,77.47
2017-12-31T01:32:50.317Z,75.09
2017-12-31T01:33:50.281Z,73.82
2017-12-31T01:34:50.237Z,75.34
2017-12-31T01:35:50.200Z,74.10
2017-12-31T01:36:50.161Z,73.63
2017-12-31T01:37:50.128Z,75.62
2017-12-31T01:38:50.090Z,76.23
2017-12-31T01:39:50.055Z,75.19
2017-12-31T01:40:50.005Z,72.96
2017-12-31T01:41:49.966Z,72.58
2017-12-31T01:42:49.933Z,72.11
2017-12-31T01:43:49.888Z,72.67
2017-12-31T01:44:49.847Z,72.86
2017-12-31T01:45:49.813Z,71.63
2017-12-31T01:46:49.771Z,73.06
2017-12-31T01:47:49.728Z,73.72
2017-12-31T01:48:49.688Z,75.15
2017-12-31T01:49:49.649Z,74.77
2017-12-31T01:50:49.614Z,74.10
2017-12-31T01:51:49.570Z,72.11
2017-12-31T01:52:49.534Z,72.67
2017-12-31T01:53:49.496Z,72.49
2017-12-31T01:54:49.450Z,68.30
2017-12-31T01:55:49.412Z,69.73
2017-12-31T01:56:49.376Z,68.11
2017-12-31T01:57:49.334Z,71.15
2017-12-31T01:58:49.292Z,72.20
2017-12-31T01:59:49.253Z,71.63
2017-12-31T02:00:49.238Z,73.15
2017-12-31T02:01:49.177Z,70.77
2017-12-31T02:02:49.134Z,71.72
2017-12-31T02:03:49.110Z,71.53
2017-12-31T02:04:49.058Z,70.30
2017-12-31T02:05:49.022Z,68.87
2017-12-31T02:06:48.983Z,67.92
2017-12-31T02:07:48.940Z,66.59
2017-12-31T02:08:48.900Z,65.60
2017-12-31T02:09:48.863Z,68.01
2017-12-31T02:10:48.819Z,70.77
2017-12-31T02:11:48.778Z,66.78
2017-12-31T02:12:48.743Z,65.73
2017-12-31T02:13:48.704Z,67.82
2017-12-31T02:14:48.661Z,68.21
2017-12-31T02:15:48.627Z,65.60
2017-12-31T02:16:48.596Z,66.49
2017-12-31T02:17:48.546Z,65.54
2017-12-31T02:18:48.506Z,68.40
2017-12-31T02:19:48.467Z,66.87
2017-12-31T02:20:48.429Z,66.59
2017-12-31T02:21:48.386Z,68.30
2017-12-31T02:22:48.344Z,68.87
2017-12-31T02:23:48.310Z,67.25
2017-12-31T02:24:48.277Z,66.59
2017-12-31T02:25:48.229Z,66.20
2017-12-31T02:26:48.192Z,65.64
2017-12-31T02:27:48.149Z,64.78
2017-12-31T02:28:48.108Z,63.99
2017-12-31T02:29:48.070Z,66.94
2017-12-31T02:30:48.030Z,62.30
2017-12-31T02:31:47.992Z,65.64
2017-12-31T02:32:47.950Z,66.36
2017-12-31T02:33:47.909Z,65.73
2017-12-31T02:34:47.871Z,62.02
2017-12-31T02:35:47.838Z,65.41
2017-12-31T02:36:47.798Z,60.18
2017-12-31T02:37:47.759Z,59.90
2017-12-31T02:38:47.714Z,63.13
2017-12-31T02:39:47.681Z,65.51
2017-12-31T02:40:47.637Z,62.08
2017-12-31T02:41:47.619Z,64.18
2017-12-31T02:42:47.560Z,61.90
2017-12-31T02:43:47.530Z,60.47
2017-12-31T02:44:47.478Z,60.75
2017-12-31T02:45:47.446Z,58.66
2017-12-31T02:46:47.457Z,58.76
2017-12-31T02:47:47.368Z,56.57
2017-12-31T02:48:47.319Z,55.33
2017-12-31T02:49:47.295Z,54.38
2017-12-31T02:50:47.260Z,54.00
2017-12-31T02:51:47.218Z,51.06
2017-12-31T02:52:47.245Z,51.34
2017-12-31T02:53:47.148Z,50.77
2017-12-31T02:54:47.098Z,50.20
2017-12-31T02:55:47.057Z,53.24
2017-12-31T02:56:47.065Z,50.58
2017-12-31T02:57:47.046Z,51.82
2017-12-31T02:58:46.929Z,56.67
2017-12-31T02:59:46.884Z,56.29
2017-12-31T03:00:46.849Z,53.91
2017-12-31T03:01:46.846Z,54.19
2017-12-31T03:02:46.803Z,52.39
2017-12-31T03:03:46.728Z,56.67
2017-12-31T03:04:47.477Z,58.95
2017-12-31T03:05:46.654Z,54.48
2017-12-31T03:06:46.615Z,55.24
2017-12-31T03:07:46.569Z,53.24
2017-12-31T03:08:46.528Z,54.19
2017-12-31T03:09:46.494Z,55.33
2017-12-31T03:10:46.449Z,54.19
2017-12-31T03:11:46.413Z,53.63
2017-12-31T03:12:46.370Z,51.25
2017-12-31T03:13:46.331Z,54.10
2017-12-31T03:14:46.291Z,55.62
2017-12-31T03:15:46.251Z,54.19
2017-12-31T03:16:46.213Z,57.62
2017-12-31T03:17:46.183Z,52.76
2017-12-31T03:18:46.133Z,55.71
2017-12-31T03:19:46.091Z,51.34
2017-12-31T03:20:46.053Z,54.10
2017-12-31T03:21:46.014Z,52.17
2017-12-31T03:22:45.973Z,55.11
2017-12-31T03:23:45.963Z,53.81
2017-12-31T03:24:45.893Z,56.45
2017-12-31T03:25:45.867Z,53.59
2017-12-31T03:26:45.821Z,56.83
2017-12-31T03:27:45.778Z,56.38
2017-12-31T03:28:45.735Z,56.00
2017-12-31T03:29:45.695Z,58.83
2017-12-31T03:30:45.656Z,58.57
2017-12-31T03:31:45.616Z,59.14
2017-12-31T03:32:45.578Z,58.83
2017-12-31T03:33:45.543Z,55.88
2017-12-31T03:34:45.494Z,55.50
2017-12-31T03:35:45.454Z,57.68
2017-12-31T03:36:45.422Z,57.68
2017-12-31T03:37:45.374Z,60.16
2017-12-31T03:38:45.357Z,61.01
2017-12-31T03:39:45.296Z,59.80
2017-12-31T03:40:45.258Z,62.27
2017-12-31T03:41:45.217Z,62.81
2017-12-31T03:42:45.201Z,60.94
2017-12-31T03:43:45.136Z,62.81
2017-12-31T03:44:45.099Z,63.70
2017-12-31T03:45:45.055Z,64.65
2017-12-31T03:46:45.017Z,63.67
2017-12-31T03:47:44.982Z,61.52
2017-12-31T03:48:44.939Z,62.18
2017-12-31T03:49:44.898Z,63.67
2017-12-31T03:50:44.858Z,63.89
2017-12-31T03:51:44.817Z,63.60
2017-12-31T03:52:44.778Z,60.66
2017-12-31T03:53:44.746Z,64.53
2017-12-31T03:54:44.698Z,62.05
2017-12-31T03:55:44.660Z,65.38
2017-12-31T03:56:44.615Z,64.14
2017-12-31T03:57:44.576Z,61.01
2017-12-31T03:58:44.548Z,60.53
2017-12-31T03:59:44.498Z,61.01
2017-12-31T04:00:44.455Z,59.68
2017-12-31T04:01:44.421Z,62.53
2017-12-31T04:02:44.375Z,60.72
2017-12-31T04:03:44.339Z,62.15
2017-12-31T04:04:44.298Z,56.83
2017-12-31T04:05:44.256Z,59.96
2017-12-31T04:06:44.216Z,58.83
2017-12-31T04:07:44.176Z,55.11
2017-12-31T04:08:44.136Z,58.83
2017-12-31T04:09:44.096Z,55.88
2017-12-31T04:10:44.057Z,57.50
2017-12-31T04:11:44.018Z,52.08
2017-12-31T04:12:43.977Z,53.97
2017-12-31T04:13:43.961Z,54.93
2017-12-31T04:14:43.898Z,51.22
2017-12-31T04:15:43.858Z,51.41
2017-12-31T04:16:43.818Z,50.27
2017-12-31T04:17:43.779Z,52.17
2017-12-31T04:18:43.737Z,54.36
2017-12-31T04:19:43.697Z,51.60
2017-12-31T04:20:43.660Z,49.04
2017-12-31T04:21:43.619Z,53.12
2017-12-31T04:22:43.577Z,52.74
2017-12-31T04:23:43.536Z,51.89
2017-12-31T04:24:43.500Z,53.69
2017-12-31T04:25:43.458Z,49.89
2017-12-31T04:26:43.418Z,52.08
2017-12-31T04:27:43.377Z,48.37
2017-12-31T04:28:43.338Z,48.08
2017-12-31T04:29:43.298Z,48.08
2017-12-31T04:30:43.258Z,44.95
2017-12-31T04:31:43.219Z,48.37
2017-12-31T04:32:43.176Z,47.52
2017-12-31T04:33:43.143Z,48.75
2017-12-31T04:34:43.096Z,43.05
2017-12-31T04:35:43.058Z,44.00
2017-12-31T04:36:43.016Z,45.23
2017-12-31T04:37:42.975Z,39.70
2017-12-31T04:38:42.940Z,40.37
2017-12-31T04:39:42.897Z,42.19
2017-12-31T04:40:42.860Z,45.31
2017-12-31T04:41:42.819Z,42.93
2017-12-31T04:42:42.782Z,39.89
2017-12-31T04:43:42.744Z,43.31
2017-12-31T04:44:42.696Z,40.20
2017-12-31T04:45:42.658Z,44.07
2017-12-31T04:46:42.624Z,47.11
2017-12-31T04:47:42.579Z,40.65
2017-12-31T04:48:42.539Z,45.23
2017-12-31T04:49:42.501Z,46.00
2017-12-31T04:50:42.459Z,41.98
2017-12-31T04:51:42.417Z,42.76
2017-12-31T04:52:42.382Z,39.98
2017-12-31T04:53:42.344Z,39.15
2017-12-31T04:54:42.304Z,41.03
2017-12-31T04:55:42.261Z,42.76
2017-12-31T04:56:42.221Z,43.31
2017-12-31T04:57:42.196Z,40.84
2017-12-31T04:58:42.144Z,40.65
2017-12-31T04:59:42.103Z,39.61
2017-12-31T05:00:42.061Z,37.90
2017-12-31T05:01:42.020Z,40.46
2017-12-31T05:02:41.980Z,36.76
2017-12-31T05:03:41.945Z,35.05
2017-12-31T05:04:41.903Z,35.61
2017-12-31T05:05:41.859Z,39.98
2017-12-31T05:06:41.820Z,40.84
2017-12-31T05:07:41.782Z,39.61
2017-12-31T05:08:41.743Z,36.66
2017-12-31T05:09:41.701Z,37.23
2017-12-31T05:10:41.657Z,39.23
2017-12-31T05:11:41.618Z,39.13
2017-12-31T05:12:41.592Z,39.04
2017-12-31T05:13:41.548Z,35.24
2017-12-31T05:14:41.500Z,40.37
2017-12-31T05:15:41.462Z,36.19
2017-12-31T05:16:41.420Z,37.42
2017-12-31T05:17:41.381Z,34.86
2017-12-31T05:18:41.339Z,37.71
2017-12-31T05:19:41.308Z,34.30
2017-12-31T05:20:41.259Z,35.81
2017-12-31T05:21:41.229Z,34.02
2017-12-31T05:22:41.183Z,38.28
2017-12-31T05:23:41.206Z,39.13
2017-12-31T05:24:41.123Z,37.82
2017-12-31T05:25:41.059Z,35.83
2017-12-31T05:26:41.021Z,39.72
2017-12-31T05:27:40.981Z,39.04
2017-12-31T05:28:40.965Z,39.04
2017-12-31T05:29:40.903Z,33.24
2017-12-31T05:30:40.867Z,36.66
2017-12-31T05:31:40.828Z,35.81
2017-12-31T05:32:40.788Z,32.67
2017-12-31T05:33:40.738Z,31.34
2017-12-31T05:34:40.709Z,30.77
2017-12-31T05:35:40.666Z,27.26
2017-12-31T05:36:40.633Z,32.77
2017-12-31T05:37:40.585Z,28.88
2017-12-31T05:38:40.538Z,30.01
2017-12-31T05:39:40.506Z,32.86
2017-12-31T05:40:40.469Z,28.02
2017-12-31T05:41:40.422Z,27.64
2017-12-31T05:42:40.383Z,30.87
2017-12-31T05:43:40.345Z,32.01
2017-12-31T05:44:40.306Z,26.88
2017-12-31T05:45:40.278Z,25.74
2017-12-31T05:46:40.226Z,24.51
2017-12-31T05:47:40.185Z,30.96
2017-12-31T05:48:40.143Z,25.36
2017-12-31T05:49:40.118Z,31.25
2017-12-31T05:50:40.075Z,27.64
2017-12-31T05:51:40.024Z,27.26
2017-12-31T05:52:39.986Z,28.59
2017-12-31T05:53:39.945Z,25.74
2017-12-31T05:54:39.902Z,29.73
2017-12-31T05:55:39.863Z,29.06
2017-12-31T05:56:39.825Z,29.82
2017-12-31T05:57:39.787Z,27.45
2017-12-31T05:58:39.747Z,28.02
2017-12-31T05:59:39.703Z,27.73
2017-12-31T06:00:39.665Z,31.25
2017-12-31T06:01:39.626Z,29.16
2017-12-31T06:02:39.584Z,26.31
2017-12-31T06:03:39.543Z,25.37
2017-12-31T06:04:39.505Z,27.26
2017-12-31T06:05:39.467Z,28.78
2017-12-31T06:06:39.427Z,30.03
2017-12-31T06:07:39.388Z,26.40
2017-12-31T06:08:39.346Z,30.22
2017-12-31T06:09:39.305Z,30.79
2017-12-31T06:10:39.269Z,27.56
2017-12-31T06:11:39.224Z,36.58
2017-12-31T06:12:39.185Z,35.25
2017-12-31T06:13:39.146Z,37.44
2017-12-31T06:14:39.108Z,35.92
2017-12-31T06:15:39.084Z,40.20
2017-12-31T06:16:39.032Z,36.02
2017-12-31T06:17:38.995Z,34.21
2017-12-31T06:18:38.952Z,36.58
2017-12-31T06:19:38.907Z,37.54
2017-12-31T06:20:38.870Z,38.48
2017-12-31T06:21:38.839Z,39.15
2017-12-31T06:22:38.792Z,39.62
2017-12-31T06:23:38.750Z,39.81
2017-12-31T06:24:38.715Z,36.09
2017-12-31T06:25:38.671Z,37.80
2017-12-31T06:26:38.633Z,35.63
2017-12-31T06:27:38.603Z,35.33
2017-12-31T06:28:38.555Z,34.76
2017-12-31T06:29:38.515Z,29.73
2017-12-31T06:30:38.475Z,32.96
2017-12-31T06:31:38.438Z,33.53
2017-12-31T06:32:38.410Z,33.62
2017-12-31T06:33:38.359Z,31.05
2017-12-31T06:34:38.320Z,32.20
2017-12-31T06:35:38.279Z,27.83
2017-12-31T06:36:38.241Z,24.51
2017-12-31T06:37:38.199Z,28.30
2017-12-31T06:38:38.161Z,30.68
2017-12-31T06:39:38.122Z,31.15
2017-12-31T06:40:38.087Z,31.63
2017-12-31T06:41:38.048Z,31.82
2017-12-31T06:42:38.014Z,31.53
2017-12-31T06:43:37.968Z,30.01
2017-12-31T06:44:37.928Z,32.67
2017-12-31T06:45:37.881Z,31.53
2017-12-31T06:46:37.840Z,30.49
2017-12-31T06:47:37.809Z,32.77
2017-12-31T06:48:37.760Z,35.52
2017-12-31T06:49:37.729Z,34.88
2017-12-31T06:50:37.680Z,35.63
2017-12-31T06:51:37.643Z,34.30
2017-12-31T06:52:37.605Z,33.54
2017-12-31T06:53:37.571Z,32.69
2017-12-31T06:54:37.525Z,35.52
2017-12-31T06:55:37.483Z,33.36
2017-12-31T06:56:37.450Z,33.54
2017-12-31T06:57:37.413Z,37.82
2017-12-31T06:58:37.369Z,36.96
2017-12-31T06:59:37.326Z,30.79
2017-12-31T07:00:37.292Z,36.87
2017-12-31T07:01:37.250Z,35.83
2017-12-31T07:02:37.209Z,38.29
2017-12-31T07:03:37.167Z,38.58
2017-12-31T07:04:37.129Z,34.11
2017-12-31T07:05:37.128Z,37.82
2017-12-31T07:06:37.046Z,38.29
2017-12-31T07:07:37.021Z,40.86
2017-12-31T07:08:36.978Z,38.20
2017-12-31T07:09:36.934Z,38.10
2017-12-31T07:10:36.897Z,36.02
2017-12-31T07:11:36.853Z,39.43
2017-12-31T07:12:36.814Z,31.07
2017-12-31T07:13:36.774Z,29.93
2017-12-31T07:14:36.749Z,29.64
2017-12-31T07:15:36.696Z,31.64
2017-12-31T07:16:36.654Z,37.44
2017-12-31T07:17:36.620Z,32.59
2017-12-31T07:18:36.576Z,29.55
2017-12-31T07:19:36.547Z,31.64
2017-12-31T07:20:36.504Z,40.48
2017-12-31T07:21:36.466Z,36.96
2017-12-31T07:22:36.422Z,39.81
2017-12-31T07:23:36.378Z,36.87
2017-12-31T07:24:36.341Z,42.10
2017-12-31T07:25:36.356Z,44.47
2017-12-31T07:26:36.260Z,40.58
2017-12-31T07:27:36.231Z,35.73
2017-12-31T07:28:36.188Z,41.43
2017-12-31T07:29:36.146Z,45.14
2017-12-31T07:30:36.123Z,40.48
2017-12-31T07:31:36.067Z,40.95
2017-12-31T07:32:36.027Z,44.85
2017-12-31T07:33:35.987Z,44.28
2017-12-31T07:34:35.948Z,45.42
2017-12-31T07:35:35.910Z,47.80
2017-12-31T07:36:35.871Z,47.61
2017-12-31T07:37:35.840Z,47.23
2017-12-31T07:38:35.794Z,46.28
2017-12-31T07:39:35.762Z,47.13
2017-12-31T07:40:35.720Z,48.37
2017-12-31T07:41:35.675Z,44.95
2017-12-31T07:42:35.648Z,48.18
2017-12-31T07:43:35.596Z,49.60
2017-12-31T07:44:35.558Z,48.66
2017-12-31T07:45:35.538Z,46.85
2017-12-31T07:46:35.483Z,48.85
2017-12-31T07:47:35.438Z,49.25
2017-12-31T07:48:35.400Z,51.72
2017-12-31T07:49:35.374Z,45.07
2017-12-31T07:50:35.329Z,48.58
2017-12-31T07:51:35.293Z,48.68
2017-12-31T07:52:35.244Z,48.87
2017-12-31T07:53:35.211Z,49.35
2017-12-31T07:54:35.189Z,44.49
2017-12-31T07:55:35.133Z,47.34
2017-12-31T07:56:35.095Z,46.97
2017-12-31T07:57:35.049Z,48.58
2017-12-31T07:58:35.011Z,52.48
2017-12-31T07:59:34.971Z,53.24
2017-12-31T08:00:34.933Z,52.20
2017-12-31T08:01:34.894Z,49.63
2017-12-31T08:02:34.866Z,49.54
2017-12-31T08:03:34.836Z,51.72
2017-12-31T08:04:34.784Z,52.20
2017-12-31T08:05:34.755Z,55.24
2017-12-31T08:06:34.699Z,50.96
2017-12-31T08:07:34.657Z,49.54
2017-12-31T08:08:34.624Z,49.91
2017-12-31T08:09:34.583Z,51.15
2017-12-31T08:10:34.542Z,48.39
2017-12-31T08:11:34.502Z,55.43
2017-12-31T08:12:34.464Z,56.67
2017-12-31T08:13:34.426Z,54.29
2017-12-31T08:14:34.389Z,55.52
2017-12-31T08:15:34.348Z,56.38
2017-12-31T08:16:34.307Z,53.34
2017-12-31T08:17:34.272Z,52.86
2017-12-31T08:18:34.231Z,52.96
2017-12-31T08:19:34.196Z,51.34
2017-12-31T08:20:34.155Z,51.34
2017-12-31T08:21:34.112Z,53.05
2017-12-31T08:22:34.075Z,50.48
2017-12-31T08:23:34.043Z,48.68
2017-12-31T08:24:33.995Z,48.39
2017-12-31T08:25:33.958Z,47.16
2017-12-31T08:26:33.916Z,53.24
2017-12-31T08:27:33.887Z,51.72
2017-12-31T08:28:33.841Z,48.68
2017-12-31T08:29:33.802Z,46.30
2017-12-31T08:30:33.764Z,45.26
2017-12-31T08:31:33.728Z,52.67
2017-12-31T08:32:33.687Z,54.29
2017-12-31T08:33:33.650Z,54.29
2017-12-31T08:34:33.610Z,46.30
2017-12-31T08:35:33.570Z,50.58
2017-12-31T08:36:33.529Z,52.96
2017-12-31T08:37:33.494Z,55.43
2017-12-31T08:38:33.455Z,50.89
2017-12-31T08:39:33.425Z,57.93
2017-12-31T08:40:33.375Z,54.29
2017-12-31T08:41:33.335Z,56.51
2017-12-31T08:42:33.313Z,53.27
2017-12-31T08:43:33.267Z,59.74
2017-12-31T08:44:33.229Z,59.45
2017-12-31T08:45:33.186Z,52.61
2017-12-31T08:46:33.146Z,59.45
2017-12-31T08:47:33.111Z,56.88
2017-12-31T08:48:33.075Z,55.08
2017-12-31T08:49:33.029Z,57.36
2017-12-31T08:50:32.994Z,56.51
2017-12-31T08:51:32.959Z,54.03
2017-12-31T08:52:32.912Z,56.51
2017-12-31T08:53:32.876Z,52.13
2017-12-31T08:54:32.837Z,55.36
2017-12-31T08:55:32.798Z,54.50
2017-12-31T08:56:32.762Z,54.03
2017-12-31T08:57:32.726Z,54.60
2017-12-31T08:58:32.688Z,56.03
2017-12-31T08:59:32.648Z,55.36
2017-12-31T09:00:32.608Z,55.08
2017-12-31T09:01:32.571Z,54.03
2017-12-31T09:02:32.548Z,55.46
2017-12-31T09:03:32.501Z,52.41
2017-12-31T09:04:32.461Z,57.45
2017-12-31T09:05:32.413Z,59.17
2017-12-31T09:06:32.377Z,56.51
2017-12-31T09:07:32.339Z,55.65
2017-12-31T09:08:32.300Z,53.36
2017-12-31T09:09:32.266Z,48.23
2017-12-31T09:10:32.243Z,52.89
2017-12-31T09:11:32.187Z,51.18
2017-12-31T09:12:32.153Z,48.90
2017-12-31T09:13:32.110Z,46.99
2017-12-31T09:14:32.074Z,44.23
2017-12-31T09:15:32.031Z,43.95
2017-12-31T09:16:31.991Z,39.28
2017-12-31T09:17:31.980Z,36.33
2017-12-31T09:18:31.918Z,40.62
2017-12-31T09:19:31.880Z,40.52
2017-12-31T09:20:31.847Z,35.00
2017-12-31T09:21:31.802Z,32.72
2017-12-31T09:22:31.766Z,34.91
2017-12-31T09:23:31.730Z,28.53
2017-12-31T09:24:31.688Z,27.87
2017-12-31T09:25:31.647Z,25.30
2017-12-31T09:26:31.613Z,22.06
2017-12-31T09:27:31.570Z,20.92
2017-12-31T09:28:31.535Z,15.98
2017-12-31T09:29:31.501Z,12.37
2017-12-31T09:30:31.470Z,11.41
2017-12-31T09:31:31.418Z,9.42
2017-12-31T09:32:31.383Z,10.65
2017-12-31T09:33:31.338Z,5.90
2017-12-31T09:34:31.301Z,3.04
2017-12-31T09:35:31.263Z,0.00
2017-12-31T09:36:31.224Z,0.00
2017-12-31T09:37:31.184Z,0.00
2017-12-31T09:38:31.164Z,0.00
2017-12-31T09:39:31.111Z,0.00
2017-12-31T09:40:31.074Z,0.00
2017-12-31T09:41:31.033Z,0.00
2017-12-31T09:42:30.997Z,0.00
2017-12-31T09:43:30.978Z,0.00
2017-12-31T09:44:30.923Z,0.00
2017-12-31T09:45:30.879Z,0.00
2017-12-31T09:46:30.840Z,0.00
2017-12-31T09:47:30.804Z,0.00
2017-12-31T09:48:30.763Z,0.00
2017-12-31T09:49:30.737Z,0.00
2017-12-31T09:50:30.687Z,0.00
2017-12-31T09:51:30.649Z,0.00
2017-12-31T09:52:30.620Z,0.00
2017-12-31T09:53:30.581Z,0.00
2017-12-31T09:54:30.536Z,0.00
2017-12-31T09:55:30.493Z,0.00
2017-12-31T09:56:30.455Z,0.00
2017-12-31T09:57:30.421Z,0.00
2017-12-31T09:58:30.391Z,0.00
2017-12-31T09:59:30.343Z,0.00
2017-12-31T10:00:30.310Z,0.00
2017-12-31T10:01:30.276Z,0.00
2017-12-31T10:02:30.238Z,0.00
2017-12-31T10:03:30.197Z,0.00
2017-12-31T10:04:30.150Z,0.00
2017-12-31T10:05:30.112Z,0.00
2017-12-31T10:06:30.074Z,0.00
2017-12-31T10:07:30.032Z,0.00
2017-12-31T10:08:29.997Z,0.00
2017-12-31T10:09:29.984Z,0.00
2017-12-31T10:10:29.919Z,0.00
2017-12-31T10:11:29.887Z,0.00
2017-12-31T10:12:29.875Z,0.00
2017-12-31T10:13:29.840Z,0.00
2017-12-31T10:14:29.769Z,0.00
2017-12-31T10:15:29.749Z,0.00
2017-12-31T10:16:29.690Z,0.00
2017-12-31T10:17:29.658Z,0.00
2017-12-31T10:18:29.610Z,0.00
2017-12-31T10:19:29.602Z,0.00
2017-12-31T10:20:29.551Z,0.00
2017-12-31T10:21:29.497Z,0.00
2017-12-31T10:22:29.473Z,0.00
2017-12-31T10:23:29.423Z,0.00
2017-12-31T10:24:29.474Z,0.00
2017-12-31T10:25:29.348Z,0.00
2017-12-31T10:26:29.304Z,0.00
2017-12-31T10:27:29.264Z,0.00
2017-12-31T10:28:29.235Z,0.00
2017-12-31T10:29:29.229Z,0.00
2017-12-31T10:30:29.152Z,0.00
2017-12-31T10:31:29.113Z,0.00
2017-12-31T10:32:29.081Z,0.00
2017-12-31T10:33:29.037Z,0.00
2017-12-31T10:34:29.014Z,0.00
2017-12-31T10:35:28.976Z,0.00
2017-12-31T10:36:28.950Z,0.00
2017-12-31T10:37:28.883Z,0.00
2017-12-31T10:38:29.694Z,0.00
2017-12-31T10:39:28.806Z,0.00
2017-12-31T10:40:28.767Z,0.00
2017-12-31T10:41:28.735Z,0.00
2017-12-31T10:42:28.698Z,0.00
2017-12-31T10:43:28.652Z,0.00
2017-12-31T10:44:28.615Z,0.00
2017-12-31T10:45:28.588Z,0.00
2017-12-31T10:46:28.543Z,0.00
2017-12-31T10:47:28.509Z,0.00
2017-12-31T10:48:28.475Z,0.00
2017-12-31T10:49:28.433Z,0.00
2017-12-31T10:50:28.386Z,0.00
2017-12-31T10:51:28.348Z,0.00
2017-12-31T10:52:28.307Z,0.00
2017-12-31T10:53:28.278Z,0.00
2017-12-31T10:54:28.243Z,0.00
2017-12-31T10:55:28.207Z,0.00
2017-12-31T10:56:28.160Z,0.00
2017-12-31T10:57:28.125Z,0.00
2017-12-31T10:58:28.085Z,0.00
2017-12-31T10:59:28.049Z,0.00
2017-12-31T11:00:28.009Z,0.00
2017-12-31T11:01:27.969Z,0.00
2017-12-31T11:02:27.924Z,0.00
2017-12-31T11:03:27.890Z,0.00
2017-12-31T11:04:27.864Z,0.00
2017-12-31T11:05:27.824Z,0.00
2017-12-31T11:06:27.775Z,0.00
2017-12-31T11:07:27.735Z,0.00
2017-12-31T11:08:27.756Z,0.00
2017-12-31T11:09:27.661Z,0.00
2017-12-31T11:10:27.620Z,0.00
2017-12-31T11:11:27.584Z,0.00
2017-12-31T11:12:27.552Z,0.00
2017-12-31T11:13:27.512Z,0.00
2017-12-31T11:14:27.471Z,0.00
2017-12-31T11:15:27.431Z,0.00
2017-12-31T11:16:27.393Z,0.00
2017-12-31T11:17:27.354Z,0.00
2017-12-31T11:18:27.324Z,0.00
2017-12-31T11:19:27.277Z,0.00
2017-12-31T11:20:27.239Z,0.00
2017-12-31T11:21:27.201Z,0.00
2017-12-31T11:22:27.161Z,0.00
2017-12-31T11:23:27.130Z,0.00
2017-12-31T11:24:27.092Z,0.00
2017-12-31T11:25:27.052Z,0.00
2017-12-31T11:26:27.015Z,0.00
2017-12-31T11:27:26.970Z,0.00
2017-12-31T11:28:26.934Z,0.00
2017-12-31T11:29:26.901Z,0.00
2017-12-31T11:30:26.860Z,0.00
2017-12-31T11:31:26.819Z,0.00
2017-12-31T11:32:26.795Z,0.00
2017-12-31T11:33:26.754Z,0.00
2017-12-31T11:34:26.705Z,0.00
2017-12-31T11:35:26.670Z,0.00
2017-12-31T11:36:26.641Z,0.00
2017-12-31T11:37:26.596Z,0.00
2017-12-31T11:38:26.553Z,0.00
2017-12-31T11:39:26.525Z,0.00
2017-12-31T11:40:26.481Z,0.00
2017-12-31T11:41:26.442Z,0.00
2017-12-31T11:42:26.422Z,0.00
2017-12-31T11:43:26.366Z,0.00
2017-12-31T11:44:26.337Z,0.00
2017-12-31T11:45:26.300Z,0.00
2017-12-31T11:46:26.272Z,0.00
2017-12-31T11:47:26.218Z,0.00
2017-12-31T11:48:26.187Z,0.00
2017-12-31T11:49:26.141Z,0.00
2017-12-31T11:50:26.103Z,0.00
2017-12-31T11:51:26.069Z,0.00
2017-12-31T11:52:26.027Z,0.00
2017-12-31T11:53:25.991Z,0.00
2017-12-31T11:54:26.011Z,0.00
2017-12-31T11:55:25.915Z,0.00
2017-12-31T11:56:25.876Z,0.00
2017-12-31T11:57:25.838Z,0.00
2017-12-31T11:58:25.803Z,0.00
2017-12-31T11:59:25.767Z,0.00
2017-12-31T12:00:25.726Z,0.00
2017-12-31T12:01:25.687Z,0.00
2017-12-31T12:02:25.648Z,0.00
2017-12-31T12:03:25.624Z,0.00
2017-12-31T12:04:25.579Z,0.00
2017-12-31T12:05:25.538Z,0.00
2017-12-31T12:06:25.505Z,0.00
2017-12-31T12:07:25.466Z,0.00
2017-12-31T12:08:25.426Z,0.00
2017-12-31T12:09:25.388Z,0.00
2017-12-31T12:10:25.351Z,0.00
2017-12-31T12:11:25.317Z,0.00
2017-12-31T12:12:25.274Z,0.00
2017-12-31T12:13:25.241Z,0.00
2017-12-31T12:14:25.216Z,0.00
2017-12-31T12:15:25.212Z,0.00
2017-12-31T12:16:25.125Z,0.00
2017-12-31T12:17:25.088Z,0.00
2017-12-31T12:18:25.046Z,0.00
2017-12-31T12:19:25.010Z,0.00
2017-12-31T12:20:24.971Z,0.00
2017-12-31T12:21:24.945Z,0.00
2017-12-31T12:22:24.900Z,0.00
2017-12-31T12:23:24.859Z,0.00
2017-12-31T12:24:24.824Z,0.00
2017-12-31T12:25:24.783Z,0.00
2017-12-31T12:26:24.744Z,0.00
2017-12-31T12:27:24.706Z,0.00
2017-12-31T12:28:24.673Z,0.00
2017-12-31T12:29:24.633Z,0.00
2017-12-31T12:30:24.594Z,0.00
2017-12-31T12:31:24.573Z,0.00
2017-12-31T12:32:24.525Z,0.00
2017-12-31T12:33:24.526Z,0.00
2017-12-31T12:34:24.451Z,0.00
2017-12-31T12:35:24.407Z,0.00
2017-12-31T12:36:24.416Z,0.00
2017-12-31T12:37:24.341Z,0.00
2017-12-31T12:38:24.308Z,0.00
2017-12-31T12:39:24.281Z,0.00
2017-12-31T12:40:24.225Z,0.00
2017-12-31T12:41:24.195Z,0.00
2017-12-31T12:42:24.167Z,0.00
2017-12-31T12:43:24.129Z,0.00
2017-12-31T12:44:24.070Z,0.00
2017-12-31T12:45:24.034Z,0.00
2017-12-31T12:46:23.996Z,0.00
2017-12-31T12:47:23.998Z,0.00
2017-12-31T12:48:23.948Z,0.00
2017-12-31T12:49:23.896Z,0.00
2017-12-31T12:50:23.852Z,0.00
2017-12-31T12:51:23.811Z,0.00
2017-12-31T12:52:23.772Z,0.00
2017-12-31T12:53:23.747Z,0.00
2017-12-31T12:54:23.712Z,0.00
2017-12-31T12:55:23.686Z,0.00
2017-12-31T12:56:23.624Z,0.00
2017-12-31T12:57:23.593Z,0.00
2017-12-31T12:58:23.571Z,0.00
2017-12-31T12:59:23.512Z,0.00